Data for 09/12/2014

Time Sea-Level Adjusted Pressure Absolute Pressure Temperature Relative Humidity Dew Point Precipitation   
(mb) (inHg) (mb) (inHg) (C) (F) (%) (C) (F) (mm) (in)
00:05 1031 30.45 860 25.4 -1.7 29 86 -3.7 25.3 0 0
00:10 1031 30.45 860 25.4 -1.6 29.2 86 -3.7 25.3 0 0
00:15 1031 30.45 860 25.4 -1.7 29 87 -3.6 25.4 0 0
00:20 1031 30.45 860 25.4 -1.8 28.8 86 -3.8 25.2 0 0
00:25 1031 30.45 860 25.4 -2 28.5 87 -3.9 25 0 0
00:30 1031 30.45 860 25.4 -2.2 28 88 -4 24.8 0 0
00:35 1031 30.45 860 25.4 -2.3 27.8 88 -4.1 24.6 0 0
00:40 1031 30.45 860 25.4 -2.4 27.7 87 -4.3 24.3 0 0
00:45 1031 30.45 860 25.4 -2.2 28 86 -4.3 24.3 0 0
00:50 1031 30.45 860 25.4 -2.1 28.2 85 -4.3 24.3 0 0
00:55 1031 30.45 860 25.4 -2.4 27.6 87 -4.3 24.2 0 0
01:00 1031 30.45 860 25.4 -2.3 27.8 87 -4.3 24.3 0 0
01:05 1031 30.45 860 25.4 -2.3 27.9 86 -4.3 24.3 0 0
01:10 1031 30.45 860 25.4 -2.3 27.9 86 -4.4 24.1 0 0
01:15 1031 30.45 860 25.4 -2.2 28 86 -4.2 24.4 0 0
01:20 1031 30.45 860 25.4 -2.2 28.1 85 -4.4 24.1 0 0
01:25 1031 30.45 860 25.4 -2.4 27.7 86 -4.5 23.9 0 0
01:30 1031 30.45 860 25.4 -2.4 27.6 86 -4.6 23.8 0 0
01:35 1031 30.45 860 25.4 -2.7 27.1 86 -4.7 23.6 0 0
01:40 1031 30.45 860 25.4 -2.8 26.9 87 -4.7 23.5 0 0
01:45 1031 30.45 860 25.4 -3 26.7 88 -4.7 23.6 0 0
01:50 1031 30.45 860 25.4 -3 26.6 88 -4.7 23.5 0 0
01:55 1031 30.45 860 25.4 -3 26.6 88 -4.7 23.6 0 0
02:00 1031 30.45 860 25.4 -2.8 27 86 -4.8 23.4 0 0
02:05 1030 30.42 860 25.4 -2.7 27.1 86 -4.8 23.4 0 0
02:10 1030 30.42 860 25.4 -3 26.6 86 -4.9 23.1 0 0
02:15 1030 30.42 860 25.4 -3 26.5 87 -4.9 23.2 0 0
02:20 1030 30.42 860 25.4 -3.4 26 89 -5 23.1 0 0
02:25 1030 30.42 860 25.4 -3.4 25.9 89 -5 22.9 0 0
02:30 1030 30.42 860 25.4 -3.2 26.3 87 -5.1 22.9 0 0
02:35 1030 30.42 860 25.4 -2.9 26.8 85 -5 23 0 0
02:40 1030 30.42 860 25.4 -2.8 26.9 85 -5.1 22.9 0 0
02:45 1030 30.42 859 25.37 -3 26.5 86 -5 23 0 0
02:50 1030 30.42 859 25.37 -2.7 27.1 85 -4.9 23.1 0 0
02:55 1030 30.42 859 25.37 -2.8 26.9 85 -5 22.9 0 0
03:00 1030 30.42 859 25.37 -3.1 26.5 86 -5.1 22.8 0 0
03:05 1030 30.42 859 25.37 -2.9 26.7 85 -5.1 22.8 0 0
03:10 1030 30.42 859 25.37 -2.6 27.3 84 -5 23 0 0
03:15 1030 30.42 859 25.37 -2.8 26.9 85 -5 23 0 0
03:20 1030 30.42 859 25.37 -3 26.6 85 -5.2 22.6 0 0
03:25 1030 30.42 859 25.37 -3.2 26.2 85 -5.3 22.4 0 0
03:30 1030 30.42 859 25.37 -3 26.5 85 -5.3 22.5 0 0
03:35 1030 30.42 859 25.37 -3 26.6 85 -5.2 22.6 0 0
03:40 1030 30.42 859 25.37 -3.4 25.8 86 -5.5 22.1 0 0
03:45 1030 30.42 859 25.37 -3.6 25.4 87 -5.5 22.2 0 0
03:50 1030 30.42 859 25.37 -3.4 25.9 86 -5.4 22.2 0 0
03:55 1030 30.42 859 25.37 -3.1 26.4 84 -5.4 22.3 0 0
04:00 1030 30.42 859 25.37 -3.1 26.3 84 -5.5 22.1 0 0
04:05 1030 30.42 859 25.37 -3.5 25.7 84 -5.8 21.6 0 0
04:10 1030 30.42 859 25.37 -4 24.8 86 -6 21.3 0 0
04:15 1030 30.42 859 25.37 -4.2 24.4 87 -6 21.2 0 0
04:20 1030 30.42 859 25.37 -3.9 25 87 -5.8 21.6 0 0
04:25 1030 30.42 859 25.37 -3.9 25 87 -5.7 21.7 0 0
04:30 1030 30.42 859 25.37 -4.2 24.4 86 -6.2 20.8 0 0
04:35 1030 30.42 859 25.37 -4.9 23.1 89 -6.5 20.3 0 0
04:40 1030 30.42 859 25.37 -5 23.1 90 -6.4 20.5 0 0
04:45 1030 30.42 859 25.37 -4.7 23.6 89 -6.3 20.7 0 0
04:50 1030 30.42 859 25.37 -4.6 23.8 87 -6.4 20.5 0 0
04:55 1030 30.42 859 25.37 -5 23.1 88 -6.6 20.1 0 0
05:00 1030 30.42 859 25.37 -5.2 22.7 91 -6.5 20.3 0 0
05:05 1030 30.42 859 25.37 -4.8 23.3 90 -6.3 20.7 0 0
05:10 1030 30.42 859 25.37 -4.3 24.2 88 -6 21.1 0 0
05:15 1030 30.42 859 25.37 -4.4 24.2 87 -6.2 20.9 0 0
05:20 1030 30.42 859 25.37 -4.6 23.8 88 -6.3 20.6 0 0
05:25 1030 30.42 859 25.37 -4.6 23.7 88 -6.3 20.7 0 0
05:30 1030 30.42 859 25.37 -4.8 23.4 88 -6.5 20.3 0 0
05:35 1030 30.42 859 25.37 -5 23.1 88 -6.6 20.1 0 0
05:40 1030 30.42 859 25.37 -4.7 23.5 87 -6.6 20.1 0 0
05:45 1030 30.42 859 25.37 -4.8 23.3 87 -6.7 20 0 0
05:50 1030 30.42 859 25.37 -4.9 23.1 89 -6.5 20.2 0 0
05:55 1030 30.42 859 25.37 -4.7 23.5 86 -6.7 19.9 0 0
06:00 1030 30.42 859 25.37 -5 23 88 -6.7 20 0 0
06:05 1030 30.42 859 25.37 -5 23 88 -6.7 20 0 0
06:10 1030 30.42 859 25.37 -5.1 22.8 88 -6.7 19.9 0 0
06:15 1030 30.42 859 25.37 -5.2 22.7 88 -6.8 19.7 0 0
06:20 1030 30.42 859 25.37 -5.2 22.6 88 -6.9 19.5 0 0
06:25 1030 30.42 859 25.37 -4.5 23.8 87 -6.4 20.5 0 0
06:30 1030 30.42 859 25.37 -3.3 26 83 -5.8 21.6 0 0
06:35 1030 30.42 859 25.37 -4.2 24.5 83 -6.6 20.1 0 0
06:40 1029 30.39 859 25.37 -5.1 22.8 87 -6.9 19.6 0 0
06:45 1029 30.39 859 25.37 -5.4 22.2 87 -7.3 18.9 0 0
06:50 1029 30.39 859 25.37 -5.9 21.4 91 -7.1 19.2 0 0
06:55 1029 30.39 859 25.37 -5.6 21.9 88 -7.2 19 0 0
07:00 1029 30.39 859 25.37 -5.6 22 88 -7.3 18.9 0 0
07:05 1029 30.39 859 25.37 -5.4 22.2 88 -7.2 19.1 0 0
07:10 1029 30.39 859 25.37 -5.6 21.9 88 -7.3 18.9 0 0
07:15 1029 30.39 858 25.34 -5.7 21.8 90 -7.1 19.2 0 0
07:20 1029 30.39 858 25.34 -5.1 22.9 87 -6.9 19.6 0 0
07:25 1029 30.39 858 25.34 -4.4 24.1 85 -6.5 20.3 0 0
07:30 1029 30.39 858 25.34 -3.7 25.3 84 -6.1 21.1 0 0
07:35 1029 30.39 858 25.34 -3.5 25.8 84 -5.7 21.7 0 0
07:40 1029 30.39 858 25.34 -3.2 26.3 84 -5.6 22 0 0
07:45 1029 30.39 858 25.34 -2.8 27 82 -5.4 22.2 0 0
07:50 1029 30.39 858 25.34 -2.4 27.6 81 -5.2 22.6 0 0
07:55 1029 30.39 858 25.34 -2.1 28.2 81 -5 23 0 0
08:00 1029 30.39 858 25.34 -1.9 28.6 79 -5.1 22.9 0 0
08:05 1029 30.39 858 25.34 -1.7 29 79 -4.9 23.3 0 0
08:10 1029 30.39 858 25.34 -1.6 29 80 -4.7 23.5 0 0
08:15 1029 30.39 858 25.34 -1.3 29.6 80 -4.4 24.2 0 0
08:20 1029 30.39 858 25.34 -0.9 30.3 78 -4.3 24.2 0 0
08:25 1029 30.39 858 25.34 -0.7 30.8 78 -4.1 24.6 0 0
08:30 1029 30.39 858 25.34 -0.5 31.2 74 -4.6 23.8 0 0
08:35 1029 30.39 858 25.34 -0.1 31.8 73 -4.3 24.3 0 0
08:40 1029 30.39 858 25.34 0.3 32.5 74 -3.9 25 0 0
08:45 1029 30.39 858 25.34 0.5 32.9 72 -3.9 25 0 0
08:50 1029 30.39 858 25.34 0.7 33.3 70 -4.1 24.7 0 0
08:55 1029 30.39 858 25.34 0.9 33.6 70 -4 24.7 0 0
09:00 1029 30.39 858 25.34 1.2 34.2 68 -4 24.8 0 0
09:05 1029 30.39 858 25.34 1.7 35.1 64 -4.3 24.3 0 0
09:10 1029 30.39 858 25.34 2.4 36.2 65 -3.6 25.5 0 0
09:15 1029 30.39 858 25.34 3.1 37.6 61 -3.6 25.5 0 0
09:20 1029 30.39 858 25.34 3.2 37.7 58 -4.3 24.2 0 0
09:25 1029 30.39 858 25.34 2.8 37.1 62 -3.8 25.2 0 0
09:30 1029 30.39 858 25.34 2.8 37.1 61 -3.9 25 0 0
09:35 1029 30.39 858 25.34 3.1 37.6 57 -4.5 23.9 0 0
09:40 1029 30.39 858 25.34 3.2 37.8 56 -4.8 23.4 0 0
09:45 1028 30.36 858 25.34 3.3 37.9 58 -4.1 24.6 0 0
09:50 1028 30.36 858 25.34 3.7 38.6 54 -4.9 23.2 0 0
09:55 1028 30.36 857 25.31 4.2 39.6 59 -3.1 26.4 0 0
10:00 1028 30.36 857 25.31 4.4 40 50 -5 23 0 0
10:05 1028 30.36 857 25.31 4.5 40 50 -5 23 0 0
10:10 1028 30.36 857 25.31 4.6 40.3 54 -3.8 25.2 0 0
10:15 1028 30.36 857 25.31 4.8 40.7 53 -4 24.8 0 0
10:20 1028 30.36 857 25.31 4.5 40.1 53 -4.2 24.4 0 0
10:25 1028 30.36 857 25.31 4.6 40.3 52 -4.5 23.9 0 0
10:30 1028 30.36 857 25.31 5.4 41.7 53 -3.5 25.6 0 0
10:35 1028 30.36 857 25.31 5.2 41.4 51 -4.1 24.6 0 0
10:40 1028 30.36 857 25.31 5.3 41.6 49 -4.6 23.7 0 0
10:45 1028 30.36 857 25.31 5.7 42.3 47 -4.6 23.6 0 0
10:50 1028 30.36 857 25.31 5.7 42.3 47 -4.8 23.3 0 0
10:55 1028 30.36 857 25.31 5.8 42.4 48 -4.4 24 0 0
11:00 1028 30.36 857 25.31 6.4 43.5 48 -3.9 25 0 0
11:05 1028 30.36 857 25.31 6.4 43.5 49 -3.6 25.4 .2 0.008
11:10 1028 30.36 857 25.31 6.2 43.1 47 -4.4 24.1 0 0
11:15 1028 30.36 857 25.31 6.2 43.2 50 -3.4 25.9 0 0
11:20 1027 30.33 857 25.31 6.8 44.3 47 -3.8 25.1 0 0
11:25 1027 30.33 857 25.31 6.9 44.4 51 -2.5 27.5 0 0
11:30 1027 30.33 857 25.31 6.9 44.4 44 -4.6 23.7 0 0
11:35 1027 30.33 856 25.28 6.6 43.9 44 -4.8 23.4 0 0
11:40 1027 30.33 856 25.28 6.8 44.3 47 -3.7 25.3 0 0
11:45 1027 30.33 856 25.28 7.2 45 45 -4 24.7 0 0
11:50 1027 30.33 856 25.28 8 46.4 40 -4.9 23.1 0 0
11:55 1027 30.33 856 25.28 8.4 47.1 40 -4.5 23.9 0 0
12:00 1027 30.33 856 25.28 8.3 46.9 42 -4 24.8 0 0
12:05 1027 30.33 856 25.28 8.7 47.6 41 -3.8 25.2 0 0
12:10 1027 30.33 856 25.28 9.2 48.5 37 -4.6 23.7 0 0
12:15 1026 30.3 856 25.28 8.9 48 43 -3.1 26.5 0 0
12:20 1026 30.3 856 25.28 8.9 48.1 43 -3 26.6 0 0
12:25 1026 30.3 856 25.28 9.3 48.7 42 -3.1 26.5 0 0
12:30 1026 30.3 856 25.28 9.4 48.8 40 -3.7 25.4 0 0
12:35 1026 30.3 855 25.25 9.4 48.8 38 -4.1 24.7 0 0
12:40 1026 30.3 855 25.25 9.2 48.5 37 -4.5 23.8 0 0
12:45 1026 30.3 855 25.25 9.6 49.2 33 -5.7 21.7 0 0
12:50 1026 30.3 855 25.25 9.7 49.5 39 -3.5 25.7 0 0
12:55 1026 30.3 855 25.25 10 49.9 32 -5.9 21.3 0 0
13:00 1026 30.3 855 25.25 10 50 29 -7.2 19 0 0
13:05 1026 30.3 855 25.25 10.2 50.3 35 -4.4 24.1 0 0
13:10 1026 30.3 855 25.25 10 50 34 -5.2 22.6 0 0
13:15 1025 30.27 855 25.25 10.4 50.8 34 -4.9 23.2 0 0
13:20 1025 30.27 855 25.25 10.4 50.6 30 -6.3 20.6 0 0
13:25 1025 30.27 854 25.22 10.5 51 30 -6.2 20.8 0 0
13:30 1025 30.27 854 25.22 11 51.8 34 -4.3 24.2 0 0
13:35 1025 30.27 854 25.22 11.2 52.1 33 -4.3 24.2 0 0
13:40 1025 30.27 854 25.22 11.2 52.1 26 -7.6 18.3 0 0
13:45 1025 30.27 854 25.22 11.3 52.3 31 -5.3 22.4 0 0
13:50 1025 30.27 854 25.22 11.8 53.3 26 -7.1 19.2 0 0
13:55 1025 30.27 854 25.22 12.1 53.8 31 -4.7 23.6 0 0
14:00 1024 30.24 854 25.22 12 53.6 30 -5.1 22.8 0 0
14:05 1024 30.24 854 25.22 12 53.7 31 -4.7 23.6 0 0
14:10 1024 30.24 854 25.22 12.3 54.2 29 -5 23 0 0
14:15 1024 30.24 854 25.22 12.6 54.6 31 -4.2 24.4 0 0
14:20 1024 30.24 853 25.19 12.5 54.4 30 -4.8 23.4 0 0
14:25 1024 30.24 853 25.19 12.7 54.8 24 -7.4 18.7 0 0
14:30 1024 30.24 853 25.19 13.1 55.6 27 -5.5 22 0 0
14:35 1024 30.24 853 25.19 13.3 55.9 28 -4.7 23.6 0 0
14:40 1024 30.24 853 25.19 13.3 56 38 -0.7 30.7 0 0
14:45 1024 30.24 853 25.19 13.4 56 30 -3.6 25.5 0 0
14:50 1024 30.24 853 25.19 13.4 56.1 27 -4.9 23.1 0 0
14:55 1024 30.24 853 25.19 13.7 56.7 32 -2.7 27.2 0 0
15:00 1024 30.24 853 25.19 13.6 56.6 33 -2.3 27.9 0 0
15:05 1024 30.24 853 25.19 13.8 56.9 25 -5.6 21.9 0 0
15:10 1023 30.21 853 25.19 14 57.2 26 -5.4 22.4 0 0
15:15 1023 30.21 853 25.19 14.5 58 25 -5.2 22.6 0 0
15:20 1023 30.21 852 25.16 14.3 57.8 25 -5.2 22.7 0 0
15:25 1023 30.21 852 25.16 14.3 57.7 25 -5.6 22 0 0
15:30 1023 30.21 852 25.16 14.6 58.2 23 -6.3 20.6 0 0
15:35 1023 30.21 852 25.16 14.6 58.3 23 -6 21.2 0 0
15:40 1023 30.21 852 25.16 15.2 59.3 20 -7.9 17.8 0 0
15:45 1023 30.21 852 25.16 15.2 59.3 20 -7.9 17.8 0 0
15:50 1023 30.21 852 25.16 15.1 59.2 18 -8.9 15.9 0 0
15:55 1023 30.21 852 25.16 15.7 60.2 23 -5.4 22.2 0 0
16:00 1023 30.21 852 25.16 16 60.7 21 -6.2 20.8 0 0
16:05 1022 30.18 852 25.16 15.9 60.5 14 -11.2 11.8 0 0
16:10 1022 30.18 852 25.16 15.6 60 18 -8.7 16.3 0 0
16:15 1022 30.18 851 25.13 15.7 60.2 14 -11.4 11.4 0 0
16:20 1022 30.18 851 25.13 16 60.7 20 -7.1 19.3 0 0
16:25 1022 30.18 851 25.13 16.2 61.1 17 -9 15.7 0 0
16:30 1022 30.18 851 25.13 16.5 61.6 22 -5.1 22.8 0 0
16:35 1022 30.18 851 25.13 16.6 62 21 -6 21.2 0 0
16:40 1022 30.18 851 25.13 16.3 61.4 13 -11.8 10.7 0 0
16:45 1022 30.18 851 25.13 16.5 61.7 15 -10.6 12.9 0 0
16:50 1022 30.18 851 25.13 16.4 61.5 19 -7.2 19.1 0 0
16:55 1022 30.18 851 25.13 16.6 61.8 18 -7.9 17.8 0 0
17:00 1022 30.18 851 25.13 16.6 61.8 22 -5.1 22.9 0 0
17:05 1022 30.18 851 25.13 16.8 62.2 16 -9 15.9 0 0
17:10 1022 30.18 851 25.13 16.4 61.5 16 -9.3 15.2 0 0
17:15 1022 30.18 851 25.13 16.7 62 17 -8.4 16.8 0 0
17:20 1022 30.18 851 25.13 16.6 61.8 16 -9 15.8 0 0
17:25 1022 30.18 851 25.13 16.4 61.6 15 -10.1 13.9 0 0
17:30 1022 30.18 851 25.13 16.5 61.7 20 -6.6 20.2 0 0
17:35 1022 30.18 851 25.13 16.7 62.1 16 -9.5 14.9 0 0
17:40 1021 30.15 851 25.13 16.7 62.1 14 -10.9 12.4 0 0
17:45 1021 30.15 851 25.13 16.8 62.3 19 -6.9 19.6 0 0
17:50 1021 30.15 851 25.13 17.1 62.7 14 -10.3 13.4 0 0
17:55 1021 30.15 851 25.13 17 62.7 20 -6 21.2 0 0
18:00 1021 30.15 850 25.1 16.6 61.9 14 -11.2 11.8 0 0
18:05 1021 30.15 850 25.1 16.7 62 19 -6.8 19.7 0 0
18:10 1021 30.15 850 25.1 16.8 62.2 17 -8.5 16.7 0 0
18:15 1021 30.15 850 25.1 16.7 62 18 -8 17.6 0 0
18:20 1021 30.15 850 25.1 16.5 61.6 19 -7.1 19.3 0 0
18:25 1021 30.15 850 25.1 16.1 61.1 25 -3.6 25.6 0 0
18:30 1021 30.15 850 25.1 15.5 59.9 29 -2.3 27.8 0 0
18:35 1021 30.15 850 25.1 15.2 59.4 27 -3.5 25.8 0 0
18:40 1021 30.15 850 25.1 14.9 58.8 31 -2.2 28 0 0
18:45 1021 30.15 850 25.1 14.8 58.6 30 -2.5 27.5 0 0
18:50 1021 30.15 850 25.1 14.7 58.4 30 -2.4 27.6 0 0
18:55 1021 30.15 850 25.1 14.4 57.9 32 -1.9 28.6 0 0
19:00 1021 30.15 850 25.1 13.9 57 37 -0.4 31.3 0 0
19:05 1021 30.15 850 25.1 13.4 56.2 38 -0.4 31.3 0 0
19:10 1021 30.15 850 25.1 12.9 55.3 40 -0.4 31.3 0 0
19:15 1021 30.15 850 25.1 12.7 54.8 38 -1.2 29.8 0 0
19:20 1021 30.15 850 25.1 12.5 54.5 40 -0.5 31 0 0
19:25 1021 30.15 850 25.1 12.2 54 42 -0.2 31.6 0 0
19:30 1021 30.15 850 25.1 11.8 53.3 39 -1.6 29.2 0 0
19:35 1021 30.15 850 25.1 11.9 53.4 39 -1.7 28.9 0 0
19:40 1021 30.15 850 25.1 11.7 53.1 39 -1.9 28.6 0 0
19:45 1021 30.15 850 25.1 11.5 52.8 39 -1.9 28.6 0 0
19:50 1021 30.15 850 25.1 11.3 52.3 40 -1.8 28.7 0 0
19:55 1021 30.15 850 25.1 10.9 51.6 40 -2 28.4 0 0
20:00 1021 30.15 850 25.1 8.6 47.5 61 1.5 34.6 0 0
20:05 1021 30.15 850 25.1 5.3 41.5 68 -0 32 0 0
20:10 1021 30.15 850 25.1 4.1 39.4 76 0.2 32.4 0 0
20:15 1021 30.15 850 25.1 3.3 38 81 0.3 32.6 0 0
20:20 1021 30.15 850 25.1 3.7 38.7 78 0.3 32.6 0 0
20:25 1021 30.15 850 25.1 3.8 38.8 78 0.3 32.5 0 0
20:30 1021 30.15 850 25.1 4.2 39.6 75 0.2 32.4 0 0
20:35 1021 30.15 850 25.1 4.1 39.4 77 0.5 32.8 0 0
20:40 1021 30.15 850 25.1 4.3 39.8 74 0.1 32.1 0 0
20:45 1021 30.15 850 25.1 4.1 39.4 76 0.3 32.6 0 0
20:50 1021 30.15 850 25.1 3.5 38.4 77 -0.1 31.9 0 0
20:55 1021 30.15 850 25.1 3.8 38.8 74 -0.5 31.1 0 0
21:00 1021 30.15 850 25.1 4 39.2 75 -0 31.9 0 0
21:05 1021 30.15 850 25.1 4.1 39.3 78 0.5 32.9 0 0
21:10 1021 30.15 850 25.1 4.8 40.7 74 0.5 33 0 0
21:15 1021 30.15 850 25.1 5.3 41.5 73 0.8 33.5 0 0
21:20 1021 30.15 850 25.1 4.6 40.2 73 0.1 32.2 0 0
21:25 1021 30.15 850 25.1 5 40.9 73 0.5 32.9 0 0
21:30 1021 30.15 850 25.1 5.2 41.4 75 1.1 34 0 0
21:35 1021 30.15 850 25.1 4.8 40.7 77 1.1 34 0 0
21:40 1021 30.15 850 25.1 4.1 39.4 79 0.8 33.4 0 0
21:45 1021 30.15 850 25.1 4 39.2 78 0.6 33 0 0
21:50 1021 30.15 850 25.1 3.8 38.9 79 0.6 33.1 0 0
21:55 1021 30.15 850 25.1 3.6 38.4 80 0.4 32.6 0 0
22:00 1021 30.15 850 25.1 3.5 38.3 80 0.4 32.7 0 0
22:05 1021 30.15 850 25.1 3.4 38.1 79 0.1 32.1 0 0
22:10 1021 30.15 850 25.1 3.4 38.1 81 0.4 32.7 0 0
22:15 1021 30.15 850 25.1 3.8 38.8 78 0.3 32.5 0 0
22:20 1021 30.15 850 25.1 3.9 39 79 0.5 32.9 0 0
22:25 1021 30.15 851 25.13 3.7 38.7 78 0.3 32.6 0 0
22:30 1021 30.15 851 25.13 4 39.2 76 0.2 32.3 0 0
22:35 1021 30.15 851 25.13 4.3 39.8 73 -0.1 31.8 0 0
22:40 1022 30.18 851 25.13 3.4 38.1 79 0.2 32.3 0 0
22:45 1022 30.18 851 25.13 2.6 36.7 83 -0 31.9 0 0
22:50 1022 30.18 851 25.13 2.6 36.6 83 -0.1 31.8 0 0
22:55 1022 30.18 851 25.13 2.8 37 82 0.1 32.1 0 0
23:00 1022 30.18 851 25.13 2.6 36.7 82 -0.1 31.7 0 0
23:05 1022 30.18 851 25.13 2.2 36 84 -0.2 31.6 0 0
23:10 1022 30.18 851 25.13 2.3 36.1 82 -0.5 31.2 0 0
23:15 1022 30.18 851 25.13 2.5 36.5 81 -0.4 31.3 0 0
23:20 1022 30.18 851 25.13 2.2 36 83 -0.3 31.4 0 0
23:25 1022 30.18 851 25.13 1.6 34.8 84 -0.8 30.5 0 0
23:30 1022 30.18 851 25.13 1.9 35.3 81 -1.1 30.1 0 0
23:35 1022 30.18 851 25.13 2.1 35.9 79 -1.1 30.1 0 0
23:40 1022 30.18 851 25.13 2.4 36.4 78 -1.1 30 0 0
23:45 1022 30.18 851 25.13 2.7 36.8 76 -1.2 29.8 0 0
23:50 1022 30.18 851 25.13 2.6 36.7 77 -0.9 30.3 0 0
23:55 1022 30.18 851 25.13 2.4 36.3 79 -0.9 30.3 0 0
24:00 1022 30.18 851 25.13 2.3 36.1 78 -1.2 29.9 0 0